createdAt,value
2017-05-05T00:01:29.067Z,23.08
2017-05-05T00:03:58.892Z,24.02
2017-05-05T00:06:27.944Z,22.56
2017-05-05T00:08:56.993Z,22.42
2017-05-05T00:11:26.044Z,24.30
2017-05-05T00:13:55.743Z,23.42
2017-05-05T00:16:24.788Z,23.38
2017-05-05T00:18:53.816Z,22.82
2017-05-05T00:21:22.866Z,23.12
2017-05-05T00:23:51.912Z,20.70
2017-05-05T00:26:20.953Z,23.26
2017-05-05T00:28:49.992Z,23.74
2017-05-05T00:31:19.922Z,20.44
2017-05-05T00:33:48.963Z,21.08
2017-05-05T00:36:18.058Z,21.64
2017-05-05T00:38:47.122Z,22.80
2017-05-05T00:41:16.161Z,22.20
2017-05-05T00:43:45.253Z,22.42
2017-05-05T00:46:14.337Z,22.06
2017-05-05T00:48:43.371Z,20.12
2017-05-05T00:51:12.429Z,23.20
2017-05-05T00:53:41.486Z,23.26
2017-05-05T00:56:10.908Z,21.44
2017-05-05T00:58:40.706Z,22.14
2017-05-05T01:01:10.512Z,21.64
2017-05-05T01:03:39.555Z,23.28
2017-05-05T01:06:08.602Z,22.50
2017-05-05T01:08:37.909Z,23.50
2017-05-05T01:11:06.940Z,23.26
2017-05-05T01:13:36.522Z,24.36
2017-05-05T01:16:06.328Z,24.92
2017-05-05T01:18:36.146Z,26.16
2017-05-05T01:21:05.919Z,26.90
2017-05-05T01:23:35.963Z,28.50
2017-05-05T01:26:05.756Z,24.56
2017-05-05T01:28:34.804Z,26.54
2017-05-05T01:31:03.873Z,27.20
2017-05-05T01:33:33.678Z,26.98
2017-05-05T01:36:02.753Z,25.28
2017-05-05T01:38:31.803Z,25.74
2017-05-05T01:41:00.859Z,26.48
2017-05-05T01:43:29.888Z,25.34
2017-05-05T01:45:58.993Z,27.16
2017-05-05T01:48:28.087Z,26.90
2017-05-05T01:50:57.135Z,28.00
2017-05-05T01:53:26.173Z,25.36
2017-05-05T01:55:55.285Z,27.22
2017-05-05T01:58:24.586Z,27.30
2017-05-05T02:00:53.651Z,29.06
2017-05-05T02:03:23.468Z,27.94
2017-05-05T02:05:52.528Z,27.96
2017-05-05T02:08:21.583Z,28.54
2017-05-05T02:10:50.673Z,29.64
2017-05-05T02:13:19.755Z,29.58
2017-05-05T02:15:48.799Z,28.50
2017-05-05T02:18:17.863Z,26.74
2017-05-05T02:20:46.936Z,25.24
2017-05-05T02:23:16.001Z,26.76
2017-05-05T02:25:45.032Z,28.56
2017-05-05T02:28:14.092Z,28.40
2017-05-05T02:30:43.913Z,27.16
2017-05-05T02:33:14.539Z,26.90
2017-05-05T02:35:44.336Z,24.10
2017-05-05T02:38:13.416Z,26.70
2017-05-05T02:40:42.707Z,24.80
2017-05-05T02:43:11.755Z,26.84
2017-05-05T02:45:42.473Z,27.00
2017-05-05T02:48:11.534Z,28.10
2017-05-05T02:50:40.677Z,26.68
2017-05-05T02:53:10.473Z,27.12
2017-05-05T02:55:39.522Z,26.76
2017-05-05T02:58:08.568Z,25.84
2017-05-05T03:00:38.411Z,26.60
2017-05-05T03:03:07.457Z,24.66
2017-05-05T03:05:36.504Z,24.62
2017-05-05T03:08:05.549Z,27.42
2017-05-05T03:10:34.601Z,25.20
2017-05-05T03:13:03.673Z,25.48
2017-05-05T03:15:33.469Z,25.34
2017-05-05T03:18:03.316Z,23.12
2017-05-05T03:20:32.354Z,24.04
2017-05-05T03:23:01.409Z,23.00
2017-05-05T03:25:30.456Z,23.76
2017-05-05T03:27:59.492Z,24.66
2017-05-05T03:30:28.546Z,24.42
2017-05-05T03:32:57.579Z,24.12
2017-05-05T03:35:26.637Z,23.20
2017-05-05T03:37:55.676Z,22.38
2017-05-05T03:40:24.754Z,23.86
2017-05-05T03:42:53.797Z,23.24
2017-05-05T03:45:22.847Z,20.02
2017-05-05T03:47:51.893Z,23.68
2017-05-05T03:50:20.969Z,22.82
2017-05-05T03:52:50.023Z,24.88
2017-05-05T03:55:19.837Z,22.82
2017-05-05T03:57:49.657Z,24.46
2017-05-05T04:00:19.648Z,23.86
2017-05-05T04:02:48.754Z,21.88
2017-05-05T04:05:18.553Z,22.60
2017-05-05T04:07:47.601Z,23.68
2017-05-05T04:10:16.660Z,21.16
2017-05-05T04:12:46.453Z,22.30
2017-05-05T04:15:15.513Z,21.14
2017-05-05T04:17:44.616Z,20.58
2017-05-05T04:20:13.661Z,21.78
2017-05-05T04:22:43.444Z,20.12
2017-05-05T04:25:12.508Z,20.48
2017-05-05T04:27:41.577Z,21.32
2017-05-05T04:30:10.633Z,21.58
2017-05-05T04:32:39.765Z,20.72
2017-05-05T04:35:08.854Z,19.82
2017-05-05T04:37:37.894Z,18.82
2017-05-05T04:40:06.957Z,19.68
2017-05-05T04:42:35.999Z,20.64
2017-05-05T04:45:05.067Z,19.72
2017-05-05T04:47:34.156Z,20.18
2017-05-05T04:50:03.193Z,18.48
2017-05-05T04:52:32.241Z,22.56
2017-05-05T04:55:01.312Z,18.32
2017-05-05T04:57:30.363Z,17.94
2017-05-05T04:59:59.428Z,19.08
2017-05-05T05:02:28.465Z,18.36
2017-05-05T05:04:57.496Z,19.16
2017-05-05T05:07:26.562Z,18.18
2017-05-05T05:09:55.606Z,19.50
2017-05-05T05:12:24.657Z,18.42
2017-05-05T05:14:54.444Z,19.54
2017-05-05T05:17:23.485Z,21.66
2017-05-05T05:19:52.534Z,18.08
2017-05-05T05:22:21.580Z,19.32
2017-05-05T05:24:51.640Z,19.20
2017-05-05T05:27:20.685Z,19.34
2017-05-05T05:29:49.745Z,18.80
2017-05-05T05:32:18.789Z,18.74
2017-05-05T05:34:47.849Z,17.62
2017-05-05T05:37:18.061Z,17.80
2017-05-05T05:39:47.152Z,18.68
2017-05-05T05:42:16.200Z,18.68
2017-05-05T05:44:48.741Z,18.60
2017-05-05T05:47:17.841Z,16.86
2017-05-05T05:49:47.629Z,17.10
2017-05-05T05:52:16.876Z,18.14
2017-05-05T05:54:45.925Z,16.68
2017-05-05T05:57:15.213Z,14.80
2017-05-05T05:59:44.298Z,15.86
2017-05-05T06:02:13.883Z,17.02
2017-05-05T06:04:42.949Z,16.86
2017-05-05T06:07:12.737Z,15.48
2017-05-05T06:09:41.780Z,15.14
2017-05-05T06:12:10.822Z,15.64
2017-05-05T06:14:39.867Z,15.76
2017-05-05T06:17:08.917Z,17.26
2017-05-05T06:19:37.978Z,14.70
2017-05-05T06:22:07.015Z,16.12
2017-05-05T06:24:36.071Z,14.30
2017-05-05T06:27:05.126Z,14.34
2017-05-05T06:29:34.197Z,14.64
2017-05-05T06:32:03.572Z,17.06
2017-05-05T06:34:32.641Z,14.74
2017-05-05T06:37:01.756Z,15.38
2017-05-05T06:39:31.004Z,17.80
2017-05-05T06:42:00.785Z,15.70
2017-05-05T06:44:29.824Z,14.74
2017-05-05T06:46:59.300Z,15.10
2017-05-05T06:49:28.333Z,13.86
2017-05-05T06:51:57.377Z,14.48
2017-05-05T06:54:26.420Z,14.88
2017-05-05T06:56:55.499Z,16.46
2017-05-05T06:59:25.368Z,17.42
2017-05-05T07:01:54.418Z,13.96
2017-05-05T07:04:23.469Z,15.40
2017-05-05T07:06:52.544Z,14.90
2017-05-05T07:09:21.604Z,13.20
2017-05-05T07:11:50.665Z,13.46
2017-05-05T07:14:19.745Z,13.06
2017-05-05T07:16:49.151Z,12.06
2017-05-05T07:19:18.195Z,12.00
2017-05-05T07:21:47.274Z,12.02
2017-05-05T07:24:17.059Z,11.22
2017-05-05T07:26:46.105Z,11.44
2017-05-05T07:29:15.324Z,12.22
2017-05-05T07:31:44.377Z,11.34
2017-05-05T07:34:14.174Z,10.90
2017-05-05T07:36:43.997Z,10.48
2017-05-05T07:39:13.792Z,10.44
2017-05-05T07:41:42.848Z,10.34
2017-05-05T07:44:11.912Z,11.28
2017-05-05T07:46:41.002Z,10.52
2017-05-05T07:49:10.058Z,11.62
2017-05-05T07:51:39.756Z,9.78
2017-05-05T07:54:09.594Z,10.40
2017-05-05T07:56:38.656Z,10.00
2017-05-05T07:59:07.723Z,9.40
2017-05-05T08:01:36.797Z,10.54
2017-05-05T08:04:06.654Z,11.76
2017-05-05T08:06:35.697Z,13.30
2017-05-05T08:09:05.508Z,11.88
2017-05-05T08:11:34.655Z,13.20
2017-05-05T08:14:03.699Z,11.88
2017-05-05T08:16:33.496Z,14.92
2017-05-05T08:19:02.556Z,13.38
2017-05-05T08:21:31.608Z,13.74
2017-05-05T08:24:01.408Z,14.08
2017-05-05T08:26:30.451Z,13.84
2017-05-05T08:28:59.501Z,13.80
2017-05-05T08:31:29.320Z,13.92
2017-05-05T08:33:59.146Z,13.14
2017-05-05T08:36:28.968Z,14.42
2017-05-05T08:38:58.101Z,14.32
2017-05-05T08:41:27.156Z,13.36
2017-05-05T08:43:56.210Z,14.04
2017-05-05T08:46:25.248Z,12.12
2017-05-05T08:48:54.365Z,13.12
2017-05-05T08:51:24.149Z,13.52
2017-05-05T08:53:53.192Z,12.04
2017-05-05T08:56:22.266Z,13.28
2017-05-05T08:58:51.313Z,12.94
2017-05-05T09:01:20.452Z,13.68
2017-05-05T09:03:49.517Z,12.22
2017-05-05T09:06:19.361Z,11.98
2017-05-05T09:08:48.405Z,13.08
2017-05-05T09:11:17.494Z,11.76
2017-05-05T09:13:46.549Z,12.40
2017-05-05T09:16:15.616Z,13.68
2017-05-05T09:18:45.426Z,13.90
2017-05-05T09:21:15.493Z,12.66
2017-05-05T09:23:44.533Z,13.08
2017-05-05T09:26:15.065Z,12.36
2017-05-05T09:28:44.983Z,13.10
2017-05-05T09:31:14.787Z,12.24
2017-05-05T09:33:44.604Z,11.80
2017-05-05T09:36:14.418Z,14.12
2017-05-05T09:38:45.105Z,14.96
2017-05-05T09:41:14.436Z,14.04
2017-05-05T09:43:43.478Z,14.30
2017-05-05T09:46:12.568Z,15.68
2017-05-05T09:48:41.655Z,16.58
2017-05-05T09:51:10.763Z,17.84
2017-05-05T09:53:41.614Z,17.84
2017-05-05T09:56:11.026Z,18.00
2017-05-05T09:58:40.072Z,16.86
2017-05-05T10:01:09.864Z,17.40
2017-05-05T10:03:39.152Z,15.94
2017-05-05T10:06:08.201Z,17.58
2017-05-05T10:08:37.239Z,16.80
2017-05-05T10:11:06.300Z,18.60
2017-05-05T10:13:35.913Z,18.64
2017-05-05T10:16:04.966Z,16.80
2017-05-05T10:18:34.797Z,16.86
2017-05-05T10:21:03.837Z,18.06
2017-05-05T10:23:32.904Z,17.20
2017-05-05T10:26:01.952Z,18.48
2017-05-05T10:28:31.005Z,18.90
2017-05-05T10:31:00.045Z,20.10
2017-05-05T10:33:29.094Z,18.36
2017-05-05T10:35:58.129Z,18.40
2017-05-05T10:38:27.192Z,20.52
2017-05-05T10:40:56.292Z,18.38
2017-05-05T10:43:25.360Z,17.36
2017-05-05T10:45:54.653Z,18.68
2017-05-05T10:48:23.713Z,18.98
2017-05-05T10:50:52.775Z,18.04
2017-05-05T10:53:21.817Z,17.60
2017-05-05T10:55:51.617Z,17.66
2017-05-05T10:58:20.663Z,17.78
2017-05-05T11:00:49.715Z,18.62
2017-05-05T11:03:19.753Z,17.18
2017-05-05T11:05:48.796Z,18.14
2017-05-05T11:08:18.186Z,19.02
2017-05-05T11:10:47.260Z,18.56
2017-05-05T11:13:16.329Z,19.58
2017-05-05T11:15:46.110Z,20.16
2017-05-05T11:18:15.174Z,18.54
2017-05-05T11:20:44.246Z,19.48
2017-05-05T11:23:13.312Z,19.50
2017-05-05T11:25:43.145Z,21.08
2017-05-05T11:28:12.201Z,18.84
2017-05-05T11:30:41.245Z,19.16
2017-05-05T11:33:10.289Z,19.02
2017-05-05T11:35:39.330Z,18.88
2017-05-05T11:38:08.379Z,19.54
2017-05-05T11:40:37.436Z,16.46
2017-05-05T11:43:06.516Z,17.64
2017-05-05T11:45:35.573Z,18.20
2017-05-05T11:48:04.633Z,17.30
2017-05-05T11:50:33.681Z,15.60
2017-05-05T11:53:03.494Z,16.62
2017-05-05T11:55:33.305Z,15.72
2017-05-05T11:58:03.111Z,15.92
2017-05-05T12:00:32.920Z,17.92
2017-05-05T12:03:01.968Z,17.78
2017-05-05T12:05:31.021Z,16.64
2017-05-05T12:08:00.805Z,14.18
2017-05-05T12:10:29.864Z,15.42
2017-05-05T12:12:58.981Z,16.20
2017-05-05T12:15:28.354Z,14.76
2017-05-05T12:17:57.416Z,12.90
2017-05-05T12:20:27.457Z,15.16
2017-05-05T12:22:56.513Z,14.24
2017-05-05T12:25:25.871Z,14.26
2017-05-05T12:27:54.913Z,15.08
2017-05-05T12:30:24.016Z,12.80
2017-05-05T12:32:54.601Z,12.30
2017-05-05T12:35:23.698Z,14.12
2017-05-05T12:37:52.769Z,13.70
2017-05-05T12:40:21.847Z,14.18
2017-05-05T12:42:52.459Z,14.56
2017-05-05T12:45:25.745Z,13.80
2017-05-05T12:47:54.818Z,13.50
2017-05-05T12:50:23.871Z,14.00
2017-05-05T12:52:52.953Z,13.02
2017-05-05T12:55:23.688Z,13.92
2017-05-05T12:57:53.600Z,15.06
2017-05-05T13:00:23.397Z,14.00
2017-05-05T13:02:52.454Z,15.06
2017-05-05T13:05:22.254Z,13.70
2017-05-05T13:07:51.320Z,13.78
2017-05-05T13:10:21.105Z,14.30
2017-05-05T13:12:53.963Z,14.84
2017-05-05T13:15:27.722Z,15.14
2017-05-05T13:17:57.505Z,15.20
2017-05-05T13:20:27.107Z,16.86
2017-05-05T13:22:59.666Z,17.78
2017-05-05T13:25:31.263Z,15.66
2017-05-05T13:28:04.540Z,16.76
2017-05-05T13:30:33.623Z,18.34
2017-05-05T13:33:05.135Z,18.12
2017-05-05T13:35:36.881Z,18.08
2017-05-05T13:38:08.472Z,16.82
2017-05-05T13:40:38.205Z,17.18
2017-05-05T13:43:09.806Z,17.96
2017-05-05T13:45:39.325Z,17.64
2017-05-05T13:48:11.228Z,17.22
2017-05-05T13:50:40.289Z,18.76
2017-05-05T13:53:09.700Z,16.64
2017-05-05T13:55:39.347Z,14.96
2017-05-05T13:58:08.413Z,17.78
2017-05-05T14:00:37.467Z,15.82
2017-05-05T14:03:06.513Z,16.90
2017-05-05T14:05:35.557Z,16.28
2017-05-05T14:08:04.625Z,16.54
2017-05-05T14:10:34.442Z,15.26
2017-05-05T14:13:04.271Z,13.56
2017-05-05T14:15:33.417Z,14.96
2017-05-05T14:18:03.272Z,15.66
2017-05-05T14:20:33.067Z,14.14
2017-05-05T14:23:02.139Z,14.76
2017-05-05T14:25:31.379Z,13.90
2017-05-05T14:28:01.230Z,15.24
2017-05-05T14:30:30.292Z,14.18
2017-05-05T14:33:00.093Z,13.74
2017-05-05T14:35:29.928Z,12.80
2017-05-05T14:37:58.985Z,12.84
2017-05-05T14:40:28.815Z,13.18
2017-05-05T14:42:58.622Z,13.64
2017-05-05T14:45:27.689Z,11.60
2017-05-05T14:47:56.777Z,12.68
2017-05-05T14:50:25.835Z,11.96
2017-05-05T14:52:54.906Z,11.32
2017-05-05T14:55:24.718Z,12.06
2017-05-05T14:57:54.548Z,12.12
2017-05-05T15:00:24.657Z,12.58
2017-05-05T15:02:54.449Z,12.36
2017-05-05T15:05:23.547Z,11.84
2017-05-05T15:07:52.694Z,13.48
2017-05-05T15:10:21.737Z,14.00
2017-05-05T15:12:50.787Z,13.02
2017-05-05T15:15:19.866Z,13.38
2017-05-05T15:17:48.944Z,12.96
2017-05-05T15:20:18.747Z,14.18
2017-05-05T15:22:47.800Z,15.54
2017-05-05T15:25:16.862Z,13.84
2017-05-05T15:27:45.986Z,14.38
2017-05-05T15:30:15.102Z,13.78
2017-05-05T15:32:44.152Z,13.30
2017-05-05T15:35:13.653Z,13.70
2017-05-05T15:37:42.760Z,14.10
2017-05-05T15:40:11.831Z,15.24
2017-05-05T15:42:41.680Z,14.08
2017-05-05T15:45:10.750Z,13.96
2017-05-05T15:47:39.834Z,12.68
2017-05-05T15:50:09.704Z,15.84
2017-05-05T15:52:38.767Z,13.94
2017-05-05T15:55:07.880Z,16.96
2017-05-05T15:57:36.953Z,15.56
2017-05-05T16:00:05.996Z,14.00
2017-05-05T16:02:35.870Z,14.74
2017-05-05T16:05:05.517Z,13.86
2017-05-05T16:07:34.638Z,16.14
2017-05-05T16:10:04.542Z,15.50
2017-05-05T16:12:33.674Z,15.84
2017-05-05T16:15:02.770Z,15.36
2017-05-05T16:17:31.832Z,15.72
2017-05-05T16:20:00.911Z,15.52
2017-05-05T16:22:30.011Z,17.32
2017-05-05T16:24:59.067Z,16.72
2017-05-05T16:27:28.195Z,16.96
2017-05-05T16:29:57.335Z,18.28
2017-05-05T16:32:27.125Z,18.74
2017-05-05T16:34:56.200Z,17.88
2017-05-05T16:37:25.429Z,17.56
2017-05-05T16:39:55.274Z,16.04
2017-05-05T16:42:24.324Z,15.72
2017-05-05T16:44:53.723Z,15.14
2017-05-05T16:47:22.796Z,15.70
2017-05-05T16:49:52.235Z,16.02
2017-05-05T16:52:22.078Z,16.28
2017-05-05T16:54:51.128Z,15.46
2017-05-05T16:57:20.183Z,14.56
2017-05-05T16:59:49.241Z,14.02
2017-05-05T17:02:19.385Z,14.92
2017-05-05T17:04:48.491Z,13.32
2017-05-05T17:07:17.581Z,14.82
2017-05-05T17:09:46.653Z,15.78
2017-05-05T17:12:16.451Z,14.52
2017-05-05T17:14:45.697Z,16.12
2017-05-05T17:17:14.770Z,15.02
2017-05-05T17:19:43.967Z,14.38
2017-05-05T17:22:13.048Z,13.54
2017-05-05T17:24:42.858Z,13.94
2017-05-05T17:27:12.673Z,16.04
2017-05-05T17:29:42.523Z,14.48
2017-05-05T17:32:11.568Z,14.38
2017-05-05T17:34:40.638Z,14.84
2017-05-05T17:37:09.718Z,14.46
2017-05-05T17:39:38.773Z,14.36
2017-05-05T17:42:08.595Z,13.40
2017-05-05T17:44:37.708Z,15.68
2017-05-05T17:47:07.026Z,15.58
2017-05-05T17:49:36.117Z,15.60
2017-05-05T17:52:05.193Z,16.42
2017-05-05T17:54:34.271Z,15.68
2017-05-05T17:57:05.003Z,16.38
2017-05-05T17:59:35.116Z,15.76
2017-05-05T18:02:04.949Z,16.52
2017-05-05T18:04:34.025Z,16.08
2017-05-05T18:07:03.849Z,16.82
2017-05-05T18:09:33.910Z,16.60
2017-05-05T18:12:03.428Z,16.84
2017-05-05T18:14:32.482Z,17.94
2017-05-05T18:17:02.266Z,18.22
2017-05-05T18:19:32.780Z,17.44
2017-05-05T18:22:02.978Z,19.20
2017-05-05T18:24:32.069Z,17.96
2017-05-05T18:27:01.975Z,16.54
2017-05-05T18:29:31.055Z,18.06
2017-05-05T18:32:00.133Z,18.26
2017-05-05T18:34:29.240Z,20.08
2017-05-05T18:36:58.363Z,17.70
2017-05-05T18:39:27.437Z,17.92
2017-05-05T18:41:56.535Z,20.84
2017-05-05T18:44:25.631Z,18.00
2017-05-05T18:46:54.669Z,20.06
2017-05-05T18:49:23.744Z,17.48
2017-05-05T18:51:52.892Z,18.12
2017-05-05T18:54:22.042Z,18.76
2017-05-05T18:56:51.672Z,19.92
2017-05-05T18:59:21.728Z,19.92
2017-05-05T19:01:51.062Z,18.00
2017-05-05T19:04:20.122Z,20.36
2017-05-05T19:06:49.228Z,18.50
2017-05-05T19:09:18.307Z,18.94
2017-05-05T19:11:47.652Z,19.32
2017-05-05T19:14:16.771Z,33.72
2017-05-05T19:16:45.842Z,21.02
2017-05-05T19:19:14.916Z,21.22
2017-05-05T19:21:43.975Z,22.28
2017-05-05T19:24:13.801Z,21.44
2017-05-05T19:26:42.873Z,21.62
2017-05-05T19:29:11.973Z,22.24
2017-05-05T19:31:42.757Z,23.10
2017-05-05T19:34:12.642Z,23.54
2017-05-05T19:36:41.744Z,24.48
2017-05-05T19:39:10.808Z,23.70
2017-05-05T19:41:39.847Z,22.78
2017-05-05T19:44:09.357Z,23.52
2017-05-05T19:46:38.500Z,22.74
2017-05-05T19:49:07.568Z,23.70
2017-05-05T19:51:36.639Z,24.08
2017-05-05T19:54:05.765Z,23.96
2017-05-05T19:56:34.874Z,25.24
2017-05-05T19:59:04.088Z,26.58
2017-05-05T20:01:33.177Z,26.52
2017-05-05T20:04:02.238Z,26.52
2017-05-05T20:06:32.247Z,24.70
2017-05-05T20:09:01.418Z,24.08
2017-05-05T20:11:30.480Z,27.90
2017-05-05T20:13:59.578Z,25.98
2017-05-05T20:16:28.671Z,26.14
2017-05-05T20:18:57.726Z,27.98
2017-05-05T20:21:26.841Z,28.42
2017-05-05T20:23:56.052Z,28.96
2017-05-05T20:26:25.138Z,28.50
2017-05-05T20:28:54.196Z,29.12
2017-05-05T20:31:23.256Z,31.22
2017-05-05T20:33:52.365Z,27.42
2017-05-05T20:36:22.185Z,30.20
2017-05-05T20:38:51.280Z,30.02
2017-05-05T20:41:26.168Z,29.68
2017-05-05T20:43:55.345Z,30.36
2017-05-05T20:46:24.381Z,29.96
2017-05-05T20:48:53.429Z,31.60
2017-05-05T20:51:22.480Z,32.18
2017-05-05T20:53:55.191Z,30.44
2017-05-05T20:56:28.818Z,30.58
2017-05-05T20:59:00.195Z,32.18
2017-05-05T21:01:29.372Z,34.46
2017-05-05T21:03:58.458Z,31.04
2017-05-05T21:06:27.576Z,33.40
2017-05-05T21:08:58.207Z,31.56
2017-05-05T21:11:27.285Z,31.22
2017-05-05T21:13:56.320Z,29.28
2017-05-05T21:16:26.122Z,32.22
2017-05-05T21:18:55.453Z,31.72
2017-05-05T21:21:24.502Z,33.78
2017-05-05T21:23:53.877Z,34.28
2017-05-05T21:26:23.290Z,30.54
2017-05-05T21:28:52.329Z,32.22
2017-05-05T21:31:22.142Z,31.96
2017-05-05T21:33:52.029Z,30.60
2017-05-05T21:36:21.068Z,31.42
2017-05-05T21:38:50.331Z,31.48
2017-05-05T21:41:19.401Z,33.46
2017-05-05T21:43:48.474Z,32.08
2017-05-05T21:46:17.516Z,30.32
2017-05-05T21:48:46.894Z,35.10
2017-05-05T21:51:17.692Z,32.82
2017-05-05T21:53:46.740Z,34.06
2017-05-05T21:56:16.016Z,33.84
2017-05-05T21:58:45.062Z,31.50
2017-05-05T22:01:14.892Z,32.72
2017-05-05T22:03:43.968Z,33.44
2017-05-05T22:06:13.771Z,33.92
2017-05-05T22:08:42.943Z,33.30
2017-05-05T22:11:12.045Z,31.86
2017-05-05T22:13:41.121Z,32.68
2017-05-05T22:16:10.243Z,30.86
2017-05-05T22:18:39.305Z,33.38
2017-05-05T22:21:08.353Z,31.66
2017-05-05T22:23:37.384Z,33.88
2017-05-05T22:26:06.454Z,33.18
2017-05-05T22:28:36.252Z,32.78
2017-05-05T22:31:06.049Z,34.40
2017-05-05T22:33:35.152Z,34.26
2017-05-05T22:36:04.473Z,32.40
2017-05-05T22:38:34.263Z,31.32
2017-05-05T22:41:03.445Z,30.48
2017-05-05T22:43:32.522Z,30.92
2017-05-05T22:46:01.566Z,31.36
2017-05-05T22:48:31.363Z,31.88
2017-05-05T22:51:00.416Z,30.76
2017-05-05T22:53:29.481Z,31.86
2017-05-05T22:55:59.276Z,29.78
2017-05-05T22:58:28.314Z,29.76
2017-05-05T23:00:57.376Z,29.34
2017-05-05T23:03:27.194Z,29.74
2017-05-05T23:05:57.014Z,28.36
2017-05-05T23:08:26.082Z,27.60
2017-05-05T23:10:55.126Z,28.00
2017-05-05T23:13:24.201Z,29.68
2017-05-05T23:15:53.304Z,28.94
2017-05-05T23:18:22.354Z,29.08
2017-05-05T23:20:51.418Z,26.64
2017-05-05T23:23:20.464Z,27.26
2017-05-05T23:25:50.255Z,25.48
2017-05-05T23:28:19.313Z,25.68
2017-05-05T23:30:48.387Z,26.32
2017-05-05T23:33:17.473Z,26.54
2017-05-05T23:35:47.277Z,24.58
2017-05-05T23:38:17.946Z,25.80
2017-05-05T23:40:47.000Z,25.40
2017-05-05T23:43:16.814Z,26.62
2017-05-05T23:45:46.601Z,24.84
2017-05-05T23:48:15.649Z,23.66
2017-05-05T23:50:44.693Z,24.74
2017-05-05T23:53:14.324Z,25.52
2017-05-05T23:55:44.135Z,27.06
2017-05-05T23:58:13.156Z,24.96
